Nearby METAR Reports

 

ELLX - Luxembourg (aut), Luxembourg
Distance from station: NNE 33km
Updated: 29/06/2022 04:50
Clear
Clear
 Wind from NE
Wind: NE 9 km/h
Temperature: 18°C
Dew Point: 10°C
Humidity: 60%
Barometer: 1015 hPa
Summary: Clear
Visibility: greater than 10 km
2022/06/29 02:50 ELLX 290250Z 04005KT CAVOK 18/10 Q1015 NOSIG
LFJL - Metz-Nancy-Lorra, France
Distance from station: SSE 46km
Updated: 29/06/2022 05:00
Clear
Clear
 Wind from varies
Wind: varies 4 km/h
Temperature: 18°C
Dew Point: 13°C
Humidity: 73%
Barometer: 1015 hPa
Summary: Clear
Visibility: greater than 10 km
2022/06/29 03:00 LFJL 290300Z AUTO VRB02KT CAVOK 18/13 Q1015 NOSIG
 
EDDR - Saarbruecken, Germany
Distance from station: E 78km
Updated: 29/06/2022 04:50
Clear
Clear
 Wind from varies
Wind: varies 4 km/h
Temperature: 18°C
Dew Point: 9°C
Humidity: 56%
Barometer: 1015 hPa
Summary: Clear
Visibility: greater than 10 km
2022/06/29 02:50 EDDR 290250Z AUTO VRB02KT CAVOK 18/09 Q1015
LFSN - Nancy/Essey, France
Distance from station: S 78km
Updated: 29/06/2022 05:00
Clear
Clear
 Wind from varies
Wind: varies 6 km/h
Temperature: 18°C
Dew Point: 13°C
Humidity: 73%
Barometer: 1015 hPa
Summary: Clear
Visibility: greater than 10 km
2022/06/29 03:00 LFSN 290300Z AUTO VRB03KT CAVOK 18/13 Q1015